sensor_id;sensor_type;location;lat;lon;timestamp;temperature;humidity
61323;DHT22;47203;48.428;11.974;2024-03-06T07:41:48;16.40;63.40
61323;DHT22;47203;48.428;11.974;2024-03-06T07:43:52;16.50;67.80
61323;DHT22;47203;48.428;11.974;2024-03-06T07:45:55;16.70;68.00
61323;DHT22;47203;48.428;11.974;2024-03-06T07:47:59;16.90;67.80
61323;DHT22;47203;48.428;11.974;2024-03-06T07:50:02;17.20;67.60
61323;DHT22;47203;48.428;11.974;2024-03-06T07:52:07;17.40;67.20
61323;DHT22;47203;48.428;11.974;2024-03-06T07:54:10;17.60;66.90
61323;DHT22;47203;48.428;11.974;2024-03-06T07:56:14;17.70;66.60
61323;DHT22;47203;48.428;11.974;2024-03-06T07:58:19;17.80;66.50
61323;DHT22;47203;48.428;11.974;2024-03-06T08:00:23;17.90;66.70
61323;DHT22;47203;48.428;11.974;2024-03-06T08:02:26;17.90;66.30
61323;DHT22;47203;48.428;11.974;2024-03-06T08:04:30;18.00;66.30
61323;DHT22;47203;48.428;11.974;2024-03-06T08:06:33;18.00;66.50
61323;DHT22;47203;48.428;11.974;2024-03-06T08:08:47;18.10;66.40
61323;DHT22;47203;48.428;11.974;2024-03-06T08:10:50;18.10;66.40
61323;DHT22;47203;48.428;11.974;2024-03-06T08:12:53;18.10;66.40
61323;DHT22;47203;48.428;11.974;2024-03-06T08:14:58;18.20;66.90
61323;DHT22;47203;48.428;11.974;2024-03-06T08:17:01;18.20;66.90
61323;DHT22;47203;48.428;11.974;2024-03-06T08:19:04;18.20;66.70
61323;DHT22;47203;48.428;11.974;2024-03-06T08:21:08;18.20;66.80
61323;DHT22;47203;48.428;11.974;2024-03-06T08:23:11;18.20;67.50
61323;DHT22;47203;48.428;11.974;2024-03-06T08:25:14;18.20;66.90
61323;DHT22;47203;48.428;11.974;2024-03-06T08:27:18;18.20;67.00
61323;DHT22;47203;48.428;11.974;2024-03-06T08:29:22;18.20;67.10
61323;DHT22;47203;48.428;11.974;2024-03-06T08:31:27;18.20;67.20
61323;DHT22;47203;48.428;11.974;2024-03-06T08:33:30;18.20;67.40
61323;DHT22;47203;48.428;11.974;2024-03-06T08:35:34;18.20;67.20
61323;DHT22;47203;48.428;11.974;2024-03-06T08:37:37;18.20;67.30
61323;DHT22;47203;48.428;11.974;2024-03-06T08:39:40;18.20;67.30
61323;DHT22;47203;48.428;11.974;2024-03-06T09:29:20;18.30;63.10
61323;DHT22;47203;48.428;11.974;2024-03-06T09:31:22;18.30;63.10
61323;DHT22;47203;48.428;11.974;2024-03-06T09:33:23;18.30;63.10
61323;DHT22;47203;48.428;11.974;2024-03-06T09:35:25;18.30;63.10
61323;DHT22;47203;48.428;11.974;2024-03-06T09:37:27;18.30;63.10
61323;DHT22;47203;48.428;11.974;2024-03-06T09:39:28;18.30;63.10
61323;DHT22;47203;48.428;11.974;2024-03-06T09:41:30;18.30;63.00
61323;DHT22;47203;48.428;11.974;2024-03-06T09:43:32;18.30;63.00
61323;DHT22;47203;48.428;11.974;2024-03-06T09:45:36;18.30;63.00
61323;DHT22;47203;48.428;11.974;2024-03-06T09:47:38;18.30;63.00
61323;DHT22;47203;48.428;11.974;2024-03-06T09:49:41;18.30;63.00
61323;DHT22;47203;48.428;11.974;2024-03-06T09:51:44;18.30;63.00
61323;DHT22;47203;48.428;11.974;2024-03-06T09:53:47;18.30;63.00
61323;DHT22;47203;48.428;11.974;2024-03-06T09:55:50;18.30;63.00
61323;DHT22;47203;48.428;11.974;2024-03-06T09:57:52;18.30;63.00
61323;DHT22;47203;48.428;11.974;2024-03-06T09:59:54;18.30;63.00
61323;DHT22;47203;48.428;11.974;2024-03-06T10:01:57;18.30;63.00
61323;DHT22;47203;48.428;11.974;2024-03-06T10:04:16;18.30;63.00
61323;DHT22;47203;48.428;11.974;2024-03-06T10:06:18;18.30;63.00
61323;DHT22;47203;48.428;11.974;2024-03-06T10:08:20;18.30;63.00
61323;DHT22;47203;48.428;11.974;2024-03-06T10:10:23;18.30;63.00
61323;DHT22;47203;48.428;11.974;2024-03-06T10:12:24;18.30;63.00
61323;DHT22;47203;48.428;11.974;2024-03-06T10:14:25;18.30;63.00
61323;DHT22;47203;48.428;11.974;2024-03-06T10:16:29;18.30;63.00
61323;DHT22;47203;48.428;11.974;2024-03-06T10:18:32;18.30;63.00
61323;DHT22;47203;48.428;11.974;2024-03-06T10:20:34;18.30;63.00
61323;DHT22;47203;48.428;11.974;2024-03-06T10:22:37;18.30;63.60
61323;DHT22;47203;48.428;11.974;2024-03-06T10:24:40;18.30;63.00
61323;DHT22;47203;48.428;11.974;2024-03-06T10:26:42;18.30;63.10
61323;DHT22;47203;48.428;11.974;2024-03-06T10:28:44;18.30;63.00
61323;DHT22;47203;48.428;11.974;2024-03-06T10:30:50;18.30;63.00
61323;DHT22;47203;48.428;11.974;2024-03-06T10:32:53;18.40;63.10
61323;DHT22;47203;48.428;11.974;2024-03-06T10:34:58;18.30;63.00
61323;DHT22;47203;48.428;11.974;2024-03-06T10:37:01;18.30;63.00
61323;DHT22;47203;48.428;11.974;2024-03-06T10:39:04;18.30;63.00
61323;DHT22;47203;48.428;11.974;2024-03-06T10:41:09;18.30;63.00
61323;DHT22;47203;48.428;11.974;2024-03-06T10:43:14;18.30;63.00
61323;DHT22;47203;48.428;11.974;2024-03-06T10:45:16;18.30;63.00
61323;DHT22;47203;48.428;11.974;2024-03-06T10:47:18;18.30;63.00
61323;DHT22;47203;48.428;11.974;2024-03-06T10:49:21;18.30;63.00
61323;DHT22;47203;48.428;11.974;2024-03-06T10:51:24;18.30;63.00
61323;DHT22;47203;48.428;11.974;2024-03-06T10:53:27;18.30;63.00
61323;DHT22;47203;48.428;11.974;2024-03-06T10:55:31;18.30;63.00
61323;DHT22;47203;48.428;11.974;2024-03-06T10:57:34;18.30;63.00
61323;DHT22;47203;48.428;11.974;2024-03-06T10:59:37;18.30;63.00
61323;DHT22;47203;48.428;11.974;2024-03-06T11:01:41;18.30;63.00
61323;DHT22;47203;48.428;11.974;2024-03-06T11:03:45;18.30;63.00
61323;DHT22;47203;48.428;11.974;2024-03-06T11:05:48;18.30;63.00
61323;DHT22;47203;48.428;11.974;2024-03-06T11:07:54;18.30;63.70
61323;DHT22;47203;48.428;11.974;2024-03-06T11:09:57;18.30;63.00
61323;DHT22;47203;48.428;11.974;2024-03-06T11:11:59;18.30;63.10
61323;DHT22;47203;48.428;11.974;2024-03-06T11:14:03;18.30;63.10
61323;DHT22;47203;48.428;11.974;2024-03-06T11:16:08;18.30;63.10
61323;DHT22;47203;48.428;11.974;2024-03-06T11:20:47;18.30;63.10
61323;DHT22;47203;48.428;11.974;2024-03-06T11:23:05;18.30;63.10
61323;DHT22;47203;48.428;11.974;2024-03-06T11:25:26;18.30;63.10
61323;DHT22;47203;48.428;11.974;2024-03-06T11:28:06;18.30;63.10
61323;DHT22;47203;48.428;11.974;2024-03-06T11:30:12;18.30;63.10
61323;DHT22;47203;48.428;11.974;2024-03-06T11:32:14;18.30;63.10
61323;DHT22;47203;48.428;11.974;2024-03-06T11:34:15;18.30;63.10
61323;DHT22;47203;48.428;11.974;2024-03-06T11:36:18;18.30;63.10
61323;DHT22;47203;48.428;11.974;2024-03-06T11:38:22;18.30;63.20
61323;DHT22;47203;48.428;11.974;2024-03-06T11:40:26;18.30;63.10
61323;DHT22;47203;48.428;11.974;2024-03-06T11:42:37;18.30;63.10
61323;DHT22;47203;48.428;11.974;2024-03-06T11:44:51;18.30;63.10
61323;DHT22;47203;48.428;11.974;2024-03-06T11:46:58;18.30;63.20
61323;DHT22;47203;48.428;11.974;2024-03-06T11:49:01;18.30;63.10
61323;DHT22;47203;48.428;11.974;2024-03-06T11:51:05;18.30;63.10
61323;DHT22;47203;48.428;11.974;2024-03-06T11:53:08;18.40;63.20
61323;DHT22;47203;48.428;11.974;2024-03-06T11:55:11;18.40;63.20
61323;DHT22;47203;48.428;11.974;2024-03-06T11:57:13;18.30;63.20
61323;DHT22;47203;48.428;11.974;2024-03-06T11:59:16;18.40;63.20
61323;DHT22;47203;48.428;11.974;2024-03-06T12:01:18;18.40;63.20
61323;DHT22;47203;48.428;11.974;2024-03-06T12:03:19;18.40;63.20
61323;DHT22;47203;48.428;11.974;2024-03-06T12:05:23;18.40;63.20
61323;DHT22;47203;48.428;11.974;2024-03-06T12:07:27;18.40;63.20
61323;DHT22;47203;48.428;11.974;2024-03-06T12:09:29;18.40;63.30
61323;DHT22;47203;48.428;11.974;2024-03-06T12:11:32;18.40;63.20
61323;DHT22;47203;48.428;11.974;2024-03-06T12:13:37;18.30;63.20
61323;DHT22;47203;48.428;11.974;2024-03-06T12:15:42;18.30;63.20
61323;DHT22;47203;48.428;11.974;2024-03-06T12:17:45;18.40;63.30
61323;DHT22;47203;48.428;11.974;2024-03-06T12:19:50;18.30;63.90
61323;DHT22;47203;48.428;11.974;2024-03-06T12:21:59;18.40;63.30
61323;DHT22;47203;48.428;11.974;2024-03-06T12:24:04;18.30;63.30
61323;DHT22;47203;48.428;11.974;2024-03-06T12:26:06;18.30;63.30
61323;DHT22;47203;48.428;11.974;2024-03-06T12:28:11;18.40;63.30
61323;DHT22;47203;48.428;11.974;2024-03-06T12:30:12;18.30;63.30
61323;DHT22;47203;48.428;11.974;2024-03-06T12:32:18;18.30;63.30
61323;DHT22;47203;48.428;11.974;2024-03-06T12:34:19;18.30;63.30
61323;DHT22;47203;48.428;11.974;2024-03-06T12:36:24;18.30;63.30
61323;DHT22;47203;48.428;11.974;2024-03-06T12:38:28;18.30;63.30
61323;DHT22;47203;48.428;11.974;2024-03-06T12:40:30;18.30;63.30
61323;DHT22;47203;48.428;11.974;2024-03-06T12:42:32;18.30;63.40
61323;DHT22;47203;48.428;11.974;2024-03-06T12:44:35;18.30;63.40
61323;DHT22;47203;48.428;11.974;2024-03-06T12:46:37;18.30;63.40
61323;DHT22;47203;48.428;11.974;2024-03-06T12:48:39;18.30;63.40
61323;DHT22;47203;48.428;11.974;2024-03-06T12:50:41;18.30;63.40
61323;DHT22;47203;48.428;11.974;2024-03-06T12:52:43;18.30;63.40
61323;DHT22;47203;48.428;11.974;2024-03-06T12:54:46;18.30;63.40
61323;DHT22;47203;48.428;11.974;2024-03-06T12:56:47;18.30;63.40
61323;DHT22;47203;48.428;11.974;2024-03-06T12:58:48;18.30;63.40
61323;DHT22;47203;48.428;11.974;2024-03-06T13:00:54;18.30;63.40
61323;DHT22;47203;48.428;11.974;2024-03-06T13:02:55;18.30;63.40
61323;DHT22;47203;48.428;11.974;2024-03-06T13:04:57;18.30;63.50
61323;DHT22;47203;48.428;11.974;2024-03-06T13:06:57;18.30;63.40
61323;DHT22;47203;48.428;11.974;2024-03-06T13:08:59;18.30;63.50
61323;DHT22;47203;48.428;11.974;2024-03-06T13:11:01;18.30;63.50
61323;DHT22;47203;48.428;11.974;2024-03-06T13:13:03;18.30;63.50
61323;DHT22;47203;48.428;11.974;2024-03-06T13:15:04;18.30;63.50
61323;DHT22;47203;48.428;11.974;2024-03-06T13:17:08;18.30;63.50
61323;DHT22;47203;48.428;11.974;2024-03-06T13:19:20;18.30;63.50
61323;DHT22;47203;48.428;11.974;2024-03-06T13:21:22;18.30;63.50
61323;DHT22;47203;48.428;11.974;2024-03-06T13:23:24;18.30;63.60
61323;DHT22;47203;48.428;11.974;2024-03-06T13:25:26;18.30;63.60
61323;DHT22;47203;48.428;11.974;2024-03-06T13:27:29;18.40;63.60
61323;DHT22;47203;48.428;11.974;2024-03-06T13:29:30;18.30;63.60
61323;DHT22;47203;48.428;11.974;2024-03-06T13:31:31;18.30;63.60
61323;DHT22;47203;48.428;11.974;2024-03-06T13:33:35;18.30;63.60
61323;DHT22;47203;48.428;11.974;2024-03-06T13:35:37;18.30;63.60
61323;DHT22;47203;48.428;11.974;2024-03-06T13:37:38;18.30;63.60
61323;DHT22;47203;48.428;11.974;2024-03-06T13:39:41;18.30;63.60
61323;DHT22;47203;48.428;11.974;2024-03-06T13:41:43;18.30;63.60
61323;DHT22;47203;48.428;11.974;2024-03-06T13:43:44;18.30;63.60
61323;DHT22;47203;48.428;11.974;2024-03-06T13:45:48;18.30;63.60
61323;DHT22;47203;48.428;11.974;2024-03-06T13:47:50;18.30;63.70
61323;DHT22;47203;48.428;11.974;2024-03-06T13:49:53;18.30;63.70
61323;DHT22;47203;48.428;11.974;2024-03-06T13:51:55;18.30;63.70
61323;DHT22;47203;48.428;11.974;2024-03-06T13:53:57;18.30;63.70
61323;DHT22;47203;48.428;11.974;2024-03-06T13:55:59;18.30;63.70
61323;DHT22;47203;48.428;11.974;2024-03-06T13:58:01;18.30;63.70
61323;DHT22;47203;48.428;11.974;2024-03-06T14:00:04;18.30;63.70
61323;DHT22;47203;48.428;11.974;2024-03-06T14:02:06;18.30;63.70
61323;DHT22;47203;48.428;11.974;2024-03-06T14:04:08;18.30;63.70
61323;DHT22;47203;48.428;11.974;2024-03-06T14:06:10;18.30;63.80
61323;DHT22;47203;48.428;11.974;2024-03-06T14:08:12;18.30;63.80
61323;DHT22;47203;48.428;11.974;2024-03-06T14:10:16;18.30;63.80
61323;DHT22;47203;48.428;11.974;2024-03-06T14:12:19;18.30;63.80
61323;DHT22;47203;48.428;11.974;2024-03-06T14:14:21;18.30;63.80
61323;DHT22;47203;48.428;11.974;2024-03-06T14:16:23;18.30;63.80
61323;DHT22;47203;48.428;11.974;2024-03-06T14:18:25;18.30;63.80
61323;DHT22;47203;48.428;11.974;2024-03-06T14:20:27;18.30;63.80
61323;DHT22;47203;48.428;11.974;2024-03-06T14:22:30;18.30;63.80
61323;DHT22;47203;48.428;11.974;2024-03-06T14:24:31;18.30;63.90
61323;DHT22;47203;48.428;11.974;2024-03-06T14:26:33;18.30;63.90
61323;DHT22;47203;48.428;11.974;2024-03-06T14:28:35;18.30;63.90
61323;DHT22;47203;48.428;11.974;2024-03-06T14:30:38;18.30;63.90
61323;DHT22;47203;48.428;11.974;2024-03-06T14:32:40;18.30;63.90
61323;DHT22;47203;48.428;11.974;2024-03-06T14:34:43;18.30;63.90
61323;DHT22;47203;48.428;11.974;2024-03-06T14:36:45;18.30;63.90
61323;DHT22;47203;48.428;11.974;2024-03-06T14:38:47;18.30;63.90
61323;DHT22;47203;48.428;11.974;2024-03-06T14:40:49;18.30;63.90
61323;DHT22;47203;48.428;11.974;2024-03-06T14:42:51;18.30;64.00
61323;DHT22;47203;48.428;11.974;2024-03-06T14:44:53;18.30;64.00
61323;DHT22;47203;48.428;11.974;2024-03-06T14:46:55;18.30;64.00
61323;DHT22;47203;48.428;11.974;2024-03-06T14:48:56;18.30;64.00
61323;DHT22;47203;48.428;11.974;2024-03-06T14:50:57;18.30;64.00
61323;DHT22;47203;48.428;11.974;2024-03-06T14:52:59;18.30;64.00
61323;DHT22;47203;48.428;11.974;2024-03-06T14:55:02;18.30;64.00
61323;DHT22;47203;48.428;11.974;2024-03-06T14:57:04;18.30;64.00
61323;DHT22;47203;48.428;11.974;2024-03-06T14:59:06;18.30;64.00
61323;DHT22;47203;48.428;11.974;2024-03-06T15:01:08;18.40;64.10
61323;DHT22;47203;48.428;11.974;2024-03-06T15:03:10;18.30;64.00
61323;DHT22;47203;48.428;11.974;2024-03-06T15:05:12;18.30;64.10
61323;DHT22;47203;48.428;11.974;2024-03-06T15:07:14;18.30;64.00
61323;DHT22;47203;48.428;11.974;2024-03-06T15:09:16;18.30;64.10
61323;DHT22;47203;48.428;11.974;2024-03-06T15:11:23;18.30;64.10
61323;DHT22;47203;48.428;11.974;2024-03-06T15:13:25;18.30;64.10
61323;DHT22;47203;48.428;11.974;2024-03-06T15:15:26;18.30;64.10
61323;DHT22;47203;48.428;11.974;2024-03-06T15:17:28;18.30;64.10
61323;DHT22;47203;48.428;11.974;2024-03-06T15:19:29;18.30;64.10
61323;DHT22;47203;48.428;11.974;2024-03-06T15:21:30;18.40;64.20
61323;DHT22;47203;48.428;11.974;2024-03-06T15:23:32;18.30;64.20
61323;DHT22;47203;48.428;11.974;2024-03-06T15:25:34;18.30;64.20
61323;DHT22;47203;48.428;11.974;2024-03-06T15:27:37;18.40;64.30
61323;DHT22;47203;48.428;11.974;2024-03-06T15:29:39;18.30;64.20
61323;DHT22;47203;48.428;11.974;2024-03-06T15:31:41;18.40;64.30
61323;DHT22;47203;48.428;11.974;2024-03-06T15:33:43;18.30;64.30
61323;DHT22;47203;48.428;11.974;2024-03-06T15:35:46;18.30;64.20
61323;DHT22;47203;48.428;11.974;2024-03-06T15:37:46;18.30;64.20
61323;DHT22;47203;48.428;11.974;2024-03-06T15:39:48;18.30;64.20
61323;DHT22;47203;48.428;11.974;2024-03-06T15:41:50;18.30;64.20
61323;DHT22;47203;48.428;11.974;2024-03-06T15:43:53;18.30;64.20
61323;DHT22;47203;48.428;11.974;2024-03-06T15:45:55;18.30;64.20
61323;DHT22;47203;48.428;11.974;2024-03-06T15:47:57;18.30;64.30
61323;DHT22;47203;48.428;11.974;2024-03-06T15:49:59;18.30;64.30
61323;DHT22;47203;48.428;11.974;2024-03-06T15:52:00;18.30;64.30
61323;DHT22;47203;48.428;11.974;2024-03-06T15:54:02;18.30;64.30
61323;DHT22;47203;48.428;11.974;2024-03-06T15:56:03;18.30;64.30
61323;DHT22;47203;48.428;11.974;2024-03-06T15:58:05;18.30;64.30
61323;DHT22;47203;48.428;11.974;2024-03-06T16:00:11;18.30;64.30
61323;DHT22;47203;48.428;11.974;2024-03-06T16:02:16;18.30;64.50
61323;DHT22;47203;48.428;11.974;2024-03-06T16:04:18;18.30;64.30
61323;DHT22;47203;48.428;11.974;2024-03-06T16:06:20;18.30;64.40
61323;DHT22;47203;48.428;11.974;2024-03-06T16:08:22;18.30;64.40
61323;DHT22;47203;48.428;11.974;2024-03-06T16:10:29;18.30;64.40
61323;DHT22;47203;48.428;11.974;2024-03-06T16:12:31;18.30;64.40
61323;DHT22;47203;48.428;11.974;2024-03-06T16:14:33;18.30;64.40
61323;DHT22;47203;48.428;11.974;2024-03-06T16:16:39;18.30;64.40
61323;DHT22;47203;48.428;11.974;2024-03-06T16:18:41;18.30;64.40
61323;DHT22;47203;48.428;11.974;2024-03-06T16:20:42;18.40;64.50
61323;DHT22;47203;48.428;11.974;2024-03-06T16:22:45;18.30;64.50
61323;DHT22;47203;48.428;11.974;2024-03-06T16:24:46;18.30;64.50
61323;DHT22;47203;48.428;11.974;2024-03-06T16:26:57;18.30;64.50
61323;DHT22;47203;48.428;11.974;2024-03-06T16:28:58;18.30;64.50
61323;DHT22;47203;48.428;11.974;2024-03-06T16:31:01;18.40;64.50
61323;DHT22;47203;48.428;11.974;2024-03-06T16:33:05;18.30;64.50
61323;DHT22;47203;48.428;11.974;2024-03-06T16:35:07;18.30;64.50
61323;DHT22;47203;48.428;11.974;2024-03-06T16:37:09;18.30;64.50
61323;DHT22;47203;48.428;11.974;2024-03-06T16:39:11;18.30;65.10
61323;DHT22;47203;48.428;11.974;2024-03-06T16:41:13;18.30;64.50
61323;DHT22;47203;48.428;11.974;2024-03-06T16:43:15;18.40;64.60
61323;DHT22;47203;48.428;11.974;2024-03-06T16:45:16;18.30;64.50
61323;DHT22;47203;48.428;11.974;2024-03-06T16:47:18;18.30;64.60
61323;DHT22;47203;48.428;11.974;2024-03-06T16:49:21;18.30;64.60
61323;DHT22;47203;48.428;11.974;2024-03-06T16:51:22;18.30;64.60
61323;DHT22;47203;48.428;11.974;2024-03-06T16:53:27;18.30;64.60
61323;DHT22;47203;48.428;11.974;2024-03-06T16:55:31;18.30;64.60
61323;DHT22;47203;48.428;11.974;2024-03-06T16:57:35;18.30;64.60
61323;DHT22;47203;48.428;11.974;2024-03-06T16:59:38;18.30;64.60
61323;DHT22;47203;48.428;11.974;2024-03-06T17:01:39;18.30;64.60
61323;DHT22;47203;48.428;11.974;2024-03-06T17:03:41;18.30;64.60
61323;DHT22;47203;48.428;11.974;2024-03-06T17:05:44;18.30;64.60
61323;DHT22;47203;48.428;11.974;2024-03-06T17:07:45;18.30;64.60
61323;DHT22;47203;48.428;11.974;2024-03-06T17:09:48;18.30;64.70
61323;DHT22;47203;48.428;11.974;2024-03-06T17:11:50;18.30;64.70
61323;DHT22;47203;48.428;11.974;2024-03-06T17:13:52;18.30;64.70
61323;DHT22;47203;48.428;11.974;2024-03-06T17:15:53;18.30;64.70
61323;DHT22;47203;48.428;11.974;2024-03-06T17:17:55;18.30;64.70
61323;DHT22;47203;48.428;11.974;2024-03-06T17:19:57;18.30;64.70
61323;DHT22;47203;48.428;11.974;2024-03-06T17:22:00;18.40;64.80
61323;DHT22;47203;48.428;11.974;2024-03-06T17:24:03;18.30;64.80
61323;DHT22;47203;48.428;11.974;2024-03-06T17:26:06;18.40;64.80
61323;DHT22;47203;48.428;11.974;2024-03-06T17:28:12;18.30;64.80
61323;DHT22;47203;48.428;11.974;2024-03-06T17:30:14;18.30;64.80
61323;DHT22;47203;48.428;11.974;2024-03-06T17:32:16;18.40;64.80
61323;DHT22;47203;48.428;11.974;2024-03-06T17:34:21;18.30;64.80
61323;DHT22;47203;48.428;11.974;2024-03-06T17:36:23;18.30;64.80
61323;DHT22;47203;48.428;11.974;2024-03-06T17:38:26;18.40;64.90
61323;DHT22;47203;48.428;11.974;2024-03-06T17:40:30;18.40;64.90
61323;DHT22;47203;48.428;11.974;2024-03-06T17:42:31;18.30;64.80
61323;DHT22;47203;48.428;11.974;2024-03-06T17:44:33;18.30;64.80
61323;DHT22;47203;48.428;11.974;2024-03-06T17:46:35;18.40;64.90
61323;DHT22;47203;48.428;11.974;2024-03-06T17:48:37;18.40;64.90
61323;DHT22;47203;48.428;11.974;2024-03-06T17:50:39;18.40;64.90
61323;DHT22;47203;48.428;11.974;2024-03-06T17:52:41;18.30;64.90
61323;DHT22;47203;48.428;11.974;2024-03-06T17:54:44;18.40;64.90
61323;DHT22;47203;48.428;11.974;2024-03-06T17:56:46;18.30;64.90
61323;DHT22;47203;48.428;11.974;2024-03-06T17:58:48;18.40;65.50
61323;DHT22;47203;48.428;11.974;2024-03-06T18:00:50;18.30;64.90
61323;DHT22;47203;48.428;11.974;2024-03-06T18:02:51;18.30;64.90
61323;DHT22;47203;48.428;11.974;2024-03-06T18:04:55;18.40;65.00
61323;DHT22;47203;48.428;11.974;2024-03-06T18:06:57;18.30;64.90
61323;DHT22;47203;48.428;11.974;2024-03-06T18:08:59;18.40;65.00
61323;DHT22;47203;48.428;11.974;2024-03-06T18:11:02;18.30;65.00
61323;DHT22;47203;48.428;11.974;2024-03-06T18:13:04;18.40;65.00
61323;DHT22;47203;48.428;11.974;2024-03-06T18:15:07;18.40;65.00
61323;DHT22;47203;48.428;11.974;2024-03-06T18:17:09;18.30;65.10
61323;DHT22;47203;48.428;11.974;2024-03-06T18:19:11;18.40;65.00
61323;DHT22;47203;48.428;11.974;2024-03-06T18:21:13;18.30;65.00
61323;DHT22;47203;48.428;11.974;2024-03-06T18:23:15;18.40;65.10
61323;DHT22;47203;48.428;11.974;2024-03-06T18:25:17;18.40;65.00
61323;DHT22;47203;48.428;11.974;2024-03-06T18:27:19;18.40;65.10
61323;DHT22;47203;48.428;11.974;2024-03-06T18:29:21;18.30;65.00
61323;DHT22;47203;48.428;11.974;2024-03-06T18:31:22;18.40;65.70
61323;DHT22;47203;48.428;11.974;2024-03-06T18:33:24;18.40;65.10
61323;DHT22;47203;48.428;11.974;2024-03-06T18:35:25;18.40;65.10
61323;DHT22;47203;48.428;11.974;2024-03-06T18:37:27;18.40;65.10
61323;DHT22;47203;48.428;11.974;2024-03-06T18:39:29;18.40;65.10
61323;DHT22;47203;48.428;11.974;2024-03-06T18:41:30;18.40;65.10
61323;DHT22;47203;48.428;11.974;2024-03-06T18:43:33;18.30;65.10
61323;DHT22;47203;48.428;11.974;2024-03-06T18:45:35;18.40;65.20
61323;DHT22;47203;48.428;11.974;2024-03-06T18:47:38;18.40;65.20
61323;DHT22;47203;48.428;11.974;2024-03-06T18:49:39;18.40;65.20
61323;DHT22;47203;48.428;11.974;2024-03-06T18:51:45;18.40;65.20
61323;DHT22;47203;48.428;11.974;2024-03-06T18:53:48;18.40;65.20
61323;DHT22;47203;48.428;11.974;2024-03-06T18:55:49;18.40;65.20
61323;DHT22;47203;48.428;11.974;2024-03-06T18:57:51;18.40;65.20
61323;DHT22;47203;48.428;11.974;2024-03-06T18:59:54;18.40;65.20
61323;DHT22;47203;48.428;11.974;2024-03-06T19:01:56;18.30;65.20
61323;DHT22;47203;48.428;11.974;2024-03-06T19:03:58;18.30;65.20
61323;DHT22;47203;48.428;11.974;2024-03-06T19:06:00;18.40;65.90
61323;DHT22;47203;48.428;11.974;2024-03-06T19:08:02;18.40;65.20
61323;DHT22;47203;48.428;11.974;2024-03-06T19:10:04;18.40;65.20
61323;DHT22;47203;48.428;11.974;2024-03-06T19:12:08;18.30;65.20
61323;DHT22;47203;48.428;11.974;2024-03-06T19:14:11;18.40;65.30
61323;DHT22;47203;48.428;11.974;2024-03-06T19:16:15;18.40;65.30
61323;DHT22;47203;48.428;11.974;2024-03-06T19:18:17;18.30;65.20
61323;DHT22;47203;48.428;11.974;2024-03-06T19:20:18;18.40;65.30
61323;DHT22;47203;48.428;11.974;2024-03-06T19:22:20;18.40;65.30
61323;DHT22;47203;48.428;11.974;2024-03-06T19:24:22;18.40;65.30
61323;DHT22;47203;48.428;11.974;2024-03-06T19:26:26;18.30;65.30
61323;DHT22;47203;48.428;11.974;2024-03-06T19:28:26;18.40;65.30
61323;DHT22;47203;48.428;11.974;2024-03-06T19:30:28;18.40;65.30
61323;DHT22;47203;48.428;11.974;2024-03-06T19:32:31;18.40;65.30
61323;DHT22;47203;48.428;11.974;2024-03-06T19:34:33;18.40;65.30
61323;DHT22;47203;48.428;11.974;2024-03-06T19:36:35;18.40;65.40
61323;DHT22;47203;48.428;11.974;2024-03-06T19:38:37;18.40;65.40
61323;DHT22;47203;48.428;11.974;2024-03-06T19:40:39;18.40;65.40
61323;DHT22;47203;48.428;11.974;2024-03-06T19:42:41;18.40;65.40
61323;DHT22;47203;48.428;11.974;2024-03-06T19:44:43;18.40;65.40
61323;DHT22;47203;48.428;11.974;2024-03-06T19:46:45;18.40;65.40
61323;DHT22;47203;48.428;11.974;2024-03-06T19:48:49;18.40;65.40
61323;DHT22;47203;48.428;11.974;2024-03-06T19:50:51;18.30;65.40
61323;DHT22;47203;48.428;11.974;2024-03-06T19:52:54;18.40;65.40
61323;DHT22;47203;48.428;11.974;2024-03-06T19:54:56;18.40;65.40
61323;DHT22;47203;48.428;11.974;2024-03-06T19:56:58;18.40;65.50
61323;DHT22;47203;48.428;11.974;2024-03-06T19:59:02;18.40;65.50
61323;DHT22;47203;48.428;11.974;2024-03-06T20:01:04;18.40;65.40
61323;DHT22;47203;48.428;11.974;2024-03-06T20:03:07;18.40;65.50
61323;DHT22;47203;48.428;11.974;2024-03-06T20:05:10;18.40;65.50
61323;DHT22;47203;48.428;11.974;2024-03-06T20:07:12;18.40;65.50
61323;DHT22;47203;48.428;11.974;2024-03-06T20:09:14;18.40;65.50
61323;DHT22;47203;48.428;11.974;2024-03-06T20:11:14;18.40;65.50
61323;DHT22;47203;48.428;11.974;2024-03-06T20:13:16;18.40;65.50
61323;DHT22;47203;48.428;11.974;2024-03-06T20:15:18;18.40;65.50
61323;DHT22;47203;48.428;11.974;2024-03-06T20:17:20;18.40;65.50
61323;DHT22;47203;48.428;11.974;2024-03-06T20:19:21;18.40;65.50
61323;DHT22;47203;48.428;11.974;2024-03-06T20:21:24;18.40;65.50
61323;DHT22;47203;48.428;11.974;2024-03-06T20:23:26;18.30;65.50
61323;DHT22;47203;48.428;11.974;2024-03-06T20:25:28;18.40;65.50
61323;DHT22;47203;48.428;11.974;2024-03-06T20:27:32;18.40;65.50
61323;DHT22;47203;48.428;11.974;2024-03-06T20:29:34;18.40;65.50
61323;DHT22;47203;48.428;11.974;2024-03-06T20:31:40;18.40;65.50
61323;DHT22;47203;48.428;11.974;2024-03-06T20:33:42;18.40;65.60
61323;DHT22;47203;48.428;11.974;2024-03-06T20:35:44;18.40;65.60
61323;DHT22;47203;48.428;11.974;2024-03-06T20:37:48;18.40;65.60
61323;DHT22;47203;48.428;11.974;2024-03-06T20:39:50;18.40;65.60
61323;DHT22;47203;48.428;11.974;2024-03-06T20:41:51;18.40;65.60
61323;DHT22;47203;48.428;11.974;2024-03-06T20:43:54;18.40;65.60
61323;DHT22;47203;48.428;11.974;2024-03-06T20:45:56;18.40;65.70
61323;DHT22;47203;48.428;11.974;2024-03-06T20:47:58;18.40;65.70
61323;DHT22;47203;48.428;11.974;2024-03-06T20:50:00;18.40;65.70
61323;DHT22;47203;48.428;11.974;2024-03-06T20:52:03;18.40;65.70
61323;DHT22;47203;48.428;11.974;2024-03-06T20:54:08;18.40;65.70
61323;DHT22;47203;48.428;11.974;2024-03-06T20:56:09;18.40;65.70
61323;DHT22;47203;48.428;11.974;2024-03-06T20:58:11;18.40;65.70
61323;DHT22;47203;48.428;11.974;2024-03-06T21:00:14;18.40;65.70
61323;DHT22;47203;48.428;11.974;2024-03-06T21:02:17;18.40;65.70
61323;DHT22;47203;48.428;11.974;2024-03-06T21:04:19;18.40;65.70
61323;DHT22;47203;48.428;11.974;2024-03-06T21:06:21;18.40;65.70
61323;DHT22;47203;48.428;11.974;2024-03-06T21:08:24;18.40;65.70
61323;DHT22;47203;48.428;11.974;2024-03-06T21:10:26;18.40;65.70
61323;DHT22;47203;48.428;11.974;2024-03-06T21:12:28;18.30;65.70
61323;DHT22;47203;48.428;11.974;2024-03-06T21:14:31;18.30;65.70